< < Back
Terminal Aerodrome Forecast


Current Version              Previous Versions:   1  2  3  4  5  6  7  8  9  

Terminal Aerodrome Forecast

863
FTUS42 KCHS 260525
TAFSAV
TAF
KSAV 260525Z 2606/2706 03004KT P6SM SCT025 BKN200
     FM260900 04004KT P6SM SCT020 BKN050
     FM261800 10010KT P6SM SCT040 BKN150
     FM270000 05004KT P6SM SCT030 BKN130=

Latest METAR

494
SAUS80 KWBC 261400 CCA
MTRSAV
METAR KSAV 261353Z 01005KT 8SM FEW025 FEW150 BKN200 25/23 A3006 RMK AO2
SLP178 CB DSNT E-SE T02500233 PNO $


USA.gov is the U.S. government's official web portal to all federal, state and local government web resources and services.